Time;durP1;ratioP1;P1;durP2;ratioP2;P2;SDS_P1;SDS_P2;PMS_P1;PMS_P2;Temp;Humidity;BMP_temperature;BMP_pressure;BME280_temperature;BME280_humidity;BME280_pressure;Samples;Min_cycle;Max_cycle;Signal;HPM_P1;HPM_P2
2023/05/04 00:02:22;;;;;;;1.80;1.23;;;6.10;99.90;;;;;;4954732;28;20224;-93
2023/05/04 00:04:50;;;;;;;1.63;1.10;;;6.10;99.90;;;;;;4939474;29;20646;-92
2023/05/04 00:07:16;;;;;;;1.07;0.80;;;6.00;99.90;;;;;;4953756;29;20244;-92
2023/05/04 00:09:42;;;;;;;3.57;1.90;;;6.00;99.90;;;;;;4954899;29;20259;-92
2023/05/04 00:12:08;;;;;;;3.00;1.30;;;5.90;99.90;;;;;;4923607;29;20308;-92
2023/05/04 00:14:35;;;;;;;5.03;1.93;;;5.90;99.90;;;;;;4938293;28;20197;-92
2023/05/04 00:17:03;;;;;;;4.57;1.10;;;5.90;99.90;;;;;;4939239;29;20216;-92
2023/05/04 00:19:31;;;;;;;1.73;1.63;;;5.80;99.90;;;;;;4938889;29;20263;-91
2023/05/04 00:21:57;;;;;;;0.70;0.70;;;5.70;99.90;;;;;;4954181;29;20229;-91
2023/05/04 00:24:23;;;;;;;6.87;1.60;;;5.80;99.90;;;;;;4938427;29;20244;-91
2023/05/04 00:26:49;;;;;;;2.47;1.30;;;5.80;99.90;;;;;;4938536;29;20223;-91
2023/05/04 00:29:14;;;;;;;3.53;1.83;;;5.80;99.90;;;;;;4939520;29;20186;-91
2023/05/04 00:31:40;;;;;;;1.27;1.17;;;5.90;99.90;;;;;;4938964;29;20300;-91
2023/05/04 00:34:06;;;;;;;1.77;1.70;;;5.90;99.90;;;;;;4921687;29;20800;-91
2023/05/04 00:36:32;;;;;;;7.53;1.63;;;6.00;99.90;;;;;;4937817;29;20292;-92
2023/05/04 00:38:57;;;;;;;1.43;1.37;;;6.00;99.90;;;;;;4937884;29;20221;-93
2023/05/04 00:41:23;;;;;;;2.03;1.70;;;6.10;99.90;;;;;;4937968;28;20591;-93
2023/05/04 00:43:49;;;;;;;0.87;0.87;;;6.20;99.90;;;;;;4938424;29;20233;-92
2023/05/04 00:46:15;;;;;;;2.13;1.93;;;6.20;99.90;;;;;;4954482;29;20214;-93
2023/05/04 00:48:44;;;;;;;1.17;0.93;;;6.20;99.90;;;;;;4954244;29;20296;-93
2023/05/04 00:51:11;;;;;;;1.20;1.10;;;6.20;99.90;;;;;;4955164;28;20308;-93
2023/05/04 00:53:38;;;;;;;0.80;0.80;;;6.10;99.90;;;;;;4954517;28;20245;-92
2023/05/04 00:56:08;;;;;;;3.27;1.17;;;6.10;99.90;;;;;;4955126;29;20193;-91
2023/05/04 00:58:34;;;;;;;0.50;0.50;;;6.20;99.90;;;;;;4968078;28;20206;-92
2023/05/04 01:01:01;;;;;;;1.60;1.40;;;6.10;99.90;;;;;;4952606;29;20313;-92
2023/05/04 01:03:27;;;;;;;1.70;1.60;;;6.10;99.90;;;;;;4954666;29;20220;-92
2023/05/04 01:06:11;;;;;;;1.03;0.87;;;6.10;99.90;;;;;;4953521;29;20213;-92
2023/05/04 01:08:43;;;;;;;2.67;1.20;;;6.10;99.90;;;;;;4953718;28;20217;-92
2023/05/04 01:11:14;;;;;;;1.90;1.23;;;6.10;99.90;;;;;;4952883;29;20189;-92
2023/05/04 01:13:41;;;;;;;1.53;1.47;;;6.10;99.90;;;;;;4950517;29;20213;-92
2023/05/04 01:16:08;;;;;;;3.40;1.53;;;6.10;99.90;;;;;;4950840;29;20217;-92
2023/05/04 01:18:34;;;;;;;2.00;1.90;;;6.10;99.90;;;;;;4936789;29;20222;-93
2023/05/04 01:21:00;;;;;;;1.07;1.00;;;6.00;99.90;;;;;;4936922;29;20210;-92
2023/05/04 01:23:26;;;;;;;2.53;1.83;;;6.00;99.90;;;;;;4937055;28;20197;-92
2023/05/04 01:26:03;;;;;;;1.13;1.13;;;6.00;99.90;;;;;;4930402;29;20657;-92
2023/05/04 01:28:40;;;;;;;0.83;0.83;;;6.00;99.90;;;;;;4953258;29;20263;-93
2023/05/04 01:31:08;;;;;;;3.17;1.33;;;6.00;99.90;;;;;;4952590;29;20220;-92
2023/05/04 01:33:35;;;;;;;0.70;0.70;;;6.00;99.90;;;;;;4952834;29;20248;-92
2023/05/04 01:36:01;;;;;;;1.77;1.67;;;6.00;99.90;;;;;;4936728;29;21186;-92
2023/05/04 01:38:27;;;;;;;2.23;2.13;;;6.00;99.90;;;;;;4936395;28;20197;-92
2023/05/04 01:40:53;;;;;;;2.13;2.03;;;6.00;99.90;;;;;;4953248;29;20193;-93
2023/05/04 01:43:19;;;;;;;1.77;1.37;;;6.00;99.90;;;;;;4936031;29;20248;-92
2023/05/04 01:45:44;;;;;;;2.10;1.40;;;6.00;99.90;;;;;;4937144;29;20213;-93
2023/05/04 01:48:10;;;;;;;1.50;1.30;;;6.00;99.90;;;;;;4936913;29;20224;-92
2023/05/04 01:50:36;;;;;;;2.07;1.83;;;6.00;99.90;;;;;;4936580;28;20241;-92
2023/05/04 01:53:02;;;;;;;4.20;1.50;;;6.00;99.90;;;;;;4937034;29;20233;-92
2023/05/04 01:55:28;;;;;;;1.67;1.20;;;6.00;99.90;;;;;;4936742;29;20304;-93
2023/05/04 01:57:54;;;;;;;1.50;1.40;;;6.00;99.90;;;;;;4936486;29;20213;-93
2023/05/04 02:00:20;;;;;;;5.60;2.20;;;6.00;99.90;;;;;;4936524;29;20835;-92
2023/05/04 02:02:45;;;;;;;1.53;1.03;;;5.90;99.90;;;;;;4936416;29;20228;-92
2023/05/04 02:05:11;;;;;;;2.53;1.53;;;6.00;99.90;;;;;;4921047;29;20190;-93
2023/05/04 02:07:37;;;;;;;2.13;1.53;;;6.00;99.90;;;;;;4935081;29;20225;-93
2023/05/04 02:10:03;;;;;;;3.17;1.33;;;6.00;99.90;;;;;;4936490;29;20304;-94
2023/05/04 02:12:28;;;;;;;1.57;1.47;;;6.00;99.90;;;;;;4936860;29;20225;-93
2023/05/04 02:14:54;;;;;;;2.50;1.90;;;6.00;99.90;;;;;;4936267;29;20213;-94
2023/05/04 02:17:20;;;;;;;2.20;2.10;;;6.00;99.90;;;;;;4936659;28;20192;-94
2023/05/04 02:19:46;;;;;;;2.17;1.27;;;5.90;99.90;;;;;;4937493;29;20300;-94
2023/05/04 02:22:12;;;;;;;1.53;1.43;;;5.90;99.90;;;;;;4921368;29;20544;-94
2023/05/04 02:24:39;;;;;;;3.93;2.60;;;5.90;99.90;;;;;;4936679;29;20285;-93
2023/05/04 02:27:05;;;;;;;1.87;1.77;;;5.80;99.90;;;;;;4936405;29;20249;-93
2023/05/04 02:29:32;;;;;;;2.17;1.53;;;5.80;99.90;;;;;;4936107;28;21036;-93
2023/05/04 02:31:57;;;;;;;1.77;1.63;;;5.70;99.90;;;;;;4937028;29;20240;-95
2023/05/04 02:34:23;;;;;;;2.30;1.77;;;5.70;99.90;;;;;;4937170;29;20224;-95
2023/05/04 02:36:49;;;;;;;2.20;1.20;;;5.70;99.90;;;;;;4938826;29;20256;-94
2023/05/04 02:39:15;;;;;;;3.23;2.27;;;5.70;99.90;;;;;;4940409;29;20267;-93
2023/05/04 02:41:41;;;;;;;1.33;1.23;;;5.70;99.90;;;;;;4940919;29;20217;-93
2023/05/04 02:44:06;;;;;;;1.10;1.03;;;5.70;99.90;;;;;;4956844;29;20256;-93
2023/05/04 02:46:32;;;;;;;1.67;1.57;;;5.70;99.90;;;;;;4940205;29;20775;-93
2023/05/04 02:48:58;;;;;;;1.47;1.37;;;5.80;99.90;;;;;;4940144;29;20284;-93
2023/05/04 02:51:24;;;;;;;1.43;1.33;;;5.80;99.90;;;;;;4940026;29;20213;-94
2023/05/04 02:53:49;;;;;;;2.23;1.87;;;5.80;99.90;;;;;;4939927;29;20221;-92
2023/05/04 02:56:15;;;;;;;1.37;1.10;;;5.80;99.90;;;;;;4939670;28;20205;-92
2023/05/04 02:58:41;;;;;;;0.70;0.70;;;5.90;99.90;;;;;;4940613;29;20195;-92
2023/05/04 03:01:07;;;;;;;3.40;1.33;;;5.90;99.90;;;;;;4955379;29;20217;-92
2023/05/04 03:03:32;;;;;;;1.50;1.43;;;5.90;99.90;;;;;;4939440;29;20220;-92
2023/05/04 03:05:58;;;;;;;2.90;1.30;;;6.00;99.90;;;;;;4939785;29;20236;-92
2023/05/04 03:08:24;;;;;;;2.50;1.17;;;6.00;99.90;;;;;;4939719;28;20650;-91
2023/05/04 03:10:50;;;;;;;6.40;1.90;;;6.00;99.90;;;;;;4939308;29;20189;-93
2023/05/04 03:13:16;;;;;;;0.87;0.80;;;6.10;99.90;;;;;;4940027;29;20321;-93
2023/05/04 03:15:44;;;;;;;2.67;1.70;;;6.10;99.90;;;;;;4940052;29;20217;-93
2023/05/04 03:18:10;;;;;;;0.90;0.90;;;6.10;99.90;;;;;;4939972;29;20217;-93
2023/05/04 03:20:38;;;;;;;3.53;1.80;;;6.10;99.90;;;;;;4939671;28;20245;-93
2023/05/04 03:23:04;;;;;;;1.17;1.17;;;6.10;99.90;;;;;;4940631;29;20193;-92
2023/05/04 03:25:30;;;;;;;2.13;1.30;;;6.10;99.90;;;;;;4939184;29;20219;-93
2023/05/04 03:27:56;;;;;;;1.23;0.73;;;6.10;99.90;;;;;;4971619;28;20213;-92
2023/05/04 03:30:22;;;;;;;3.00;2.10;;;6.20;99.90;;;;;;4938140;29;20220;-92
2023/05/04 03:32:48;;;;;;;1.70;1.23;;;6.20;99.90;;;;;;4954763;29;20233;-93
2023/05/04 03:35:14;;;;;;;7.77;0.90;;;6.30;99.90;;;;;;4955581;29;20284;-92
2023/05/04 03:37:40;;;;;;;1.50;1.40;;;6.30;99.90;;;;;;4939589;29;20216;-93
2023/05/04 03:40:06;;;;;;;1.53;1.43;;;6.40;99.90;;;;;;4939436;29;20221;-93
2023/05/04 03:42:32;;;;;;;0.63;0.63;;;6.40;99.90;;;;;;4939265;29;20237;-92
2023/05/04 03:44:58;;;;;;;1.90;1.07;;;6.40;99.90;;;;;;4938270;29;20223;-92
2023/05/04 03:47:24;;;;;;;1.17;1.07;;;6.50;99.90;;;;;;4938688;28;20193;-92
2023/05/04 03:49:49;;;;;;;2.07;1.73;;;6.50;99.90;;;;;;4939924;29;20189;-92
2023/05/04 03:52:15;;;;;;;1.53;1.20;;;6.50;99.90;;;;;;4953871;29;20228;-92
2023/05/04 03:54:41;;;;;;;3.10;1.23;;;6.50;99.90;;;;;;4939030;29;20213;-94
2023/05/04 03:57:06;;;;;;;3.10;2.53;;;6.50;99.90;;;;;;4938642;29;20221;-91
2023/05/04 03:59:32;;;;;;;4.53;2.33;;;6.40;99.90;;;;;;4937922;28;20204;-92
2023/05/04 04:01:59;;;;;;;2.47;2.33;;;6.50;99.90;;;;;;4939276;29;20274;-92
2023/05/04 04:04:25;;;;;;;5.87;1.73;;;6.50;99.90;;;;;;4937227;29;20217;-91
2023/05/04 04:06:50;;;;;;;3.90;1.80;;;6.50;99.90;;;;;;4937983;29;20332;-95
2023/05/04 04:09:17;;;;;;;3.37;2.03;;;6.50;99.90;;;;;;4939134;29;20217;-93
2023/05/04 04:11:42;;;;;;;1.63;1.53;;;6.50;99.90;;;;;;4940007;29;20268;-95
2023/05/04 04:14:08;;;;;;;3.17;2.27;;;6.50;99.90;;;;;;4940948;29;20209;-94
2023/05/04 04:16:34;;;;;;;2.63;2.40;;;6.60;99.90;;;;;;4940701;29;20551;-95
2023/05/04 04:19:00;;;;;;;2.53;2.20;;;6.60;99.90;;;;;;4940005;29;20271;-94
2023/05/04 04:21:27;;;;;;;9.80;2.20;;;6.60;99.90;;;;;;4939267;29;20241;-93
2023/05/04 04:23:53;;;;;;;3.23;1.97;;;6.60;99.90;;;;;;4954745;29;20213;-93
2023/05/04 04:26:20;;;;;;;2.03;1.33;;;6.60;99.90;;;;;;4938600;28;20224;-94
2023/05/04 04:28:49;;;;;;;3.43;1.60;;;6.60;99.90;;;;;;4939712;29;20593;-94
2023/05/04 04:31:19;;;;;;;1.80;1.70;;;6.50;99.90;;;;;;4939270;29;20220;-95
2023/05/04 04:33:46;;;;;;;1.80;1.17;;;6.50;99.90;;;;;;4937556;29;20236;-94
2023/05/04 04:36:15;;;;;;;1.60;1.50;;;6.50;99.90;;;;;;4938282;29;20287;-93
2023/05/04 04:38:42;;;;;;;3.97;2.90;;;6.50;99.90;;;;;;4938654;29;20213;-93
2023/05/04 04:41:08;;;;;;;2.90;1.70;;;6.50;99.90;;;;;;4939282;29;20300;-93
2023/05/04 04:43:34;;;;;;;1.77;1.57;;;6.60;99.90;;;;;;4954442;29;20334;-90
2023/05/04 04:46:00;;;;;;;2.43;2.23;;;6.70;99.90;;;;;;4939192;29;20809;-95
2023/05/04 04:48:27;;;;;;;2.40;2.20;;;6.70;99.90;;;;;;4938060;29;20209;-94
2023/05/04 04:50:52;;;;;;;2.33;2.07;;;6.70;99.90;;;;;;4938897;29;20673;-94
2023/05/04 04:53:18;;;;;;;2.10;1.87;;;6.80;99.90;;;;;;4938588;28;20213;-93
2023/05/04 04:55:44;;;;;;;1.60;1.33;;;6.90;99.90;;;;;;4938667;29;20186;-94
2023/05/04 04:58:10;;;;;;;2.53;1.53;;;6.90;99.90;;;;;;4938213;29;20573;-93
2023/05/04 05:00:39;;;;;;;2.37;2.07;;;7.10;99.90;;;;;;4937350;29;20214;-92
2023/05/04 05:03:05;;;;;;;2.30;2.20;;;7.10;99.90;;;;;;4934772;29;20253;-94
2023/05/04 05:05:30;;;;;;;1.40;1.17;;;7.20;99.90;;;;;;4935349;28;20402;-94
2023/05/04 05:08:03;;;;;;;2.33;1.80;;;7.30;99.90;;;;;;4938437;29;20200;-93
2023/05/04 05:10:29;;;;;;;4.93;1.83;;;7.30;99.90;;;;;;4952117;29;20217;-91
2023/05/04 05:12:55;;;;;;;4.03;1.67;;;7.40;99.90;;;;;;4934098;29;20217;-92
2023/05/04 05:15:21;;;;;;;1.47;1.37;;;7.50;99.90;;;;;;4936421;29;20214;-93
2023/05/04 05:17:46;;;;;;;2.47;1.80;;;7.50;99.90;;;;;;4939932;29;20575;-93
2023/05/04 05:20:14;;;;;;;2.23;2.03;;;7.60;99.90;;;;;;4946101;29;20204;-92
2023/05/04 05:22:40;;;;;;;5.10;0.80;;;7.80;99.90;;;;;;4970781;28;20678;-93
2023/05/04 05:25:06;;;;;;;2.43;1.53;;;7.90;99.90;;;;;;4954853;29;20224;-94
2023/05/04 05:27:33;;;;;;;2.57;1.80;;;7.90;99.90;;;;;;4938469;29;20220;-94
2023/05/04 05:30:01;;;;;;;3.07;1.13;;;8.00;99.90;;;;;;4939059;29;20229;-94
2023/05/04 05:32:27;;;;;;;1.90;1.63;;;8.10;99.90;;;;;;4951365;28;20296;-93
2023/05/04 05:34:53;;;;;;;2.03;1.50;;;8.30;99.90;;;;;;4937701;29;20189;-93
2023/05/04 05:37:19;;;;;;;2.40;1.57;;;8.40;99.90;;;;;;4937656;29;20236;-94
2023/05/04 05:39:47;;;;;;;2.77;1.40;;;8.50;99.90;;;;;;4940854;29;20249;-91
2023/05/04 05:42:15;;;;;;;1.00;0.87;;;8.60;99.90;;;;;;4934896;28;20643;-96
2023/05/04 05:44:42;;;;;;;2.43;1.50;;;8.80;99.90;;;;;;4924998;29;20312;-94
2023/05/04 05:47:08;;;;;;;1.43;1.23;;;9.10;99.90;;;;;;4958367;29;20236;-96
2023/05/04 05:49:34;;;;;;;1.63;1.53;;;9.50;99.90;;;;;;4940352;29;20288;-91
2023/05/04 05:52:02;;;;;;;1.33;1.17;;;9.70;99.90;;;;;;4943421;29;20304;-94
2023/05/04 05:54:30;;;;;;;5.07;2.43;;;9.70;99.90;;;;;;4933458;29;20650;-92
2023/05/04 05:56:56;;;;;;;5.50;3.37;;;9.90;99.90;;;;;;4954553;29;20225;-95
2023/05/04 05:59:25;;;;;;;2.10;2.00;;;10.00;99.90;;;;;;4940909;28;20182;-93
2023/05/04 06:01:51;;;;;;;1.80;1.30;;;10.00;99.90;;;;;;4926178;29;20224;-96
2023/05/04 06:04:26;;;;;;;4.40;1.50;;;10.10;99.90;;;;;;4941367;29;20216;-95
2023/05/04 06:06:53;;;;;;;2.63;1.63;;;10.20;99.90;;;;;;4946231;29;20624;-94
2023/05/04 06:09:19;;;;;;;0.43;0.43;;;10.40;99.90;;;;;;4950191;29;20221;-95
2023/05/04 06:11:48;;;;;;;1.17;1.10;;;10.10;99.90;;;;;;4938121;29;20720;-90
2023/05/04 06:14:14;;;;;;;2.37;0.87;;;10.20;99.90;;;;;;4936338;29;20221;-89
2023/05/04 06:16:40;;;;;;;1.40;1.40;;;10.10;99.90;;;;;;4936040;29;20221;-90
2023/05/04 06:19:06;;;;;;;2.67;1.67;;;10.30;99.90;;;;;;4936174;29;20234;-89
2023/05/04 06:21:31;;;;;;;2.87;2.27;;;10.40;99.90;;;;;;4952253;29;20709;-89
2023/05/04 06:23:57;;;;;;;5.90;1.87;;;10.50;99.90;;;;;;4936156;29;20359;-90
2023/05/04 06:26:24;;;;;;;2.17;1.67;;;10.60;99.90;;;;;;4936310;28;20186;-90
2023/05/04 06:28:50;;;;;;;2.17;1.37;;;10.70;99.90;;;;;;4952561;29;20270;-90
2023/05/04 06:31:17;;;;;;;1.77;1.67;;;10.70;99.90;;;;;;4936594;29;20257;-90
2023/05/04 06:33:43;;;;;;;1.67;1.57;;;10.70;99.90;;;;;;4936367;29;20253;-91
2023/05/04 06:36:09;;;;;;;4.60;2.13;;;10.80;99.90;;;;;;4936620;29;20386;-91
2023/05/04 06:38:34;;;;;;;2.03;1.20;;;11.20;99.90;;;;;;4936661;28;20226;-91
2023/05/04 06:41:01;;;;;;;2.43;0.97;;;11.40;99.90;;;;;;4958693;29;20190;-92
2023/05/04 06:43:26;;;;;;;1.30;1.03;;;11.50;99.90;;;;;;4935644;29;20225;-90
2023/05/04 06:45:52;;;;;;;2.63;1.17;;;11.90;99.90;;;;;;4936285;29;20213;-89
2023/05/04 06:48:19;;;;;;;1.67;1.27;;;12.40;99.90;;;;;;4938455;29;20237;-92
2023/05/04 06:50:46;;;;;;;9.87;2.03;;;12.50;99.90;;;;;;4937124;29;20237;-90
2023/05/04 06:53:15;;;;;;;1.23;0.70;;;12.40;99.90;;;;;;4936963;29;20201;-90
2023/05/04 06:55:44;;;;;;;4.00;1.93;;;12.20;99.90;;;;;;4921272;29;20288;-89
2023/05/04 06:58:10;;;;;;;2.03;1.47;;;12.00;99.90;;;;;;4921534;29;20217;-89
2023/05/04 07:00:36;;;;;;;15.00;3.33;;;12.20;99.90;;;;;;4951649;29;20664;-91
2023/05/04 07:03:03;;;;;;;1.93;1.63;;;11.90;99.90;;;;;;4936494;29;20740;-91
2023/05/04 07:05:29;;;;;;;3.20;1.77;;;11.60;99.90;;;;;;4937959;28;20550;-93
2023/05/04 07:07:57;;;;;;;1.53;1.07;;;11.70;99.90;;;;;;4936931;29;20188;-90
2023/05/04 07:10:23;;;;;;;5.50;1.33;;;11.60;99.90;;;;;;4952067;29;20244;-91
2023/05/04 07:12:49;;;;;;;6.77;2.20;;;11.40;99.90;;;;;;4936639;29;20689;-90
2023/05/04 07:15:15;;;;;;;4.70;2.37;;;11.40;99.90;;;;;;4937080;29;20280;-91
2023/05/04 07:17:41;;;;;;;3.23;2.13;;;11.20;99.90;;;;;;4936786;29;20217;-92
2023/05/04 07:20:07;;;;;;;4.47;2.77;;;11.30;99.90;;;;;;4937221;29;20660;-90
2023/05/04 07:22:33;;;;;;;2.07;1.90;;;11.60;99.90;;;;;;4945506;29;20218;-91
2023/05/04 07:25:00;;;;;;;3.53;2.57;;;11.80;99.90;;;;;;4940026;29;20218;-91
2023/05/04 07:27:26;;;;;;;3.13;1.93;;;11.90;99.90;;;;;;4940433;29;20696;-92
2023/05/04 07:29:52;;;;;;;1.00;0.90;;;11.90;99.90;;;;;;4940048;29;20224;-93
2023/05/04 07:32:18;;;;;;;2.80;1.90;;;12.30;99.90;;;;;;4930854;28;20225;-91
2023/05/04 07:34:45;;;;;;;4.13;2.37;;;12.50;99.90;;;;;;4953573;28;20186;-92
2023/05/04 07:37:14;;;;;;;4.37;1.37;;;12.60;99.90;;;;;;4955167;29;20220;-91
2023/05/04 07:39:40;;;;;;;2.37;2.10;;;13.00;99.90;;;;;;4940121;29;20213;-89
2023/05/04 07:42:07;;;;;;;3.30;1.97;;;12.60;99.90;;;;;;4939544;29;20224;-89
2023/05/04 07:44:33;;;;;;;5.63;3.90;;;12.70;99.90;;;;;;4956933;28;20727;-91
2023/05/04 07:47:00;;;;;;;2.00;1.37;;;12.90;99.90;;;;;;4940512;29;20284;-93
2023/05/04 07:49:26;;;;;;;2.43;2.10;;;12.80;99.90;;;;;;4957161;28;20244;-93
2023/05/04 07:51:52;;;;;;;3.50;1.57;;;12.60;99.90;;;;;;4956292;29;20221;-94
2023/05/04 07:54:19;;;;;;;5.87;2.13;;;12.90;99.90;;;;;;4941287;29;20288;-94
2023/05/04 07:56:45;;;;;;;1.90;1.67;;;12.80;99.90;;;;;;4942252;29;20678;-92
2023/05/04 07:59:15;;;;;;;3.83;1.77;;;12.70;99.90;;;;;;4956964;29;20196;-93
2023/05/04 08:01:41;;;;;;;1.73;1.63;;;12.30;99.90;;;;;;4957097;29;20272;-90
2023/05/04 08:04:07;;;;;;;5.97;2.37;;;12.30;99.90;;;;;;4939580;29;20225;-91
2023/05/04 08:06:38;;;;;;;4.10;1.97;;;12.30;99.90;;;;;;4940061;29;20269;-92
2023/05/04 08:09:07;;;;;;;2.90;1.60;;;12.30;99.90;;;;;;4940111;29;20217;-92
2023/05/04 08:11:36;;;;;;;2.67;2.07;;;12.60;99.90;;;;;;4939813;28;20197;-92
2023/05/04 08:14:02;;;;;;;4.00;1.97;;;12.90;99.90;;;;;;4941402;29;20220;-94
2023/05/04 08:16:28;;;;;;;7.90;3.03;;;13.20;99.90;;;;;;4958010;29;20296;-93
2023/05/04 08:19:00;;;;;;;4.97;1.93;;;13.30;99.90;;;;;;4945855;29;20225;-95
2023/05/04 08:21:34;;;;;;;8.23;2.47;;;13.50;99.90;;;;;;4957802;29;20368;-95
2023/05/04 08:24:00;;;;;;;3.30;1.77;;;14.00;99.90;;;;;;4957267;29;20228;-93
2023/05/04 08:26:26;;;;;;;3.57;1.73;;;13.90;99.90;;;;;;4943228;28;20545;-95
2023/05/04 08:28:52;;;;;;;8.47;1.53;;;14.00;99.90;;;;;;4959013;29;20222;-94
2023/05/04 08:31:17;;;;;;;6.63;2.37;;;13.80;99.90;;;;;;4946921;29;20790;-93
2023/05/04 08:33:47;;;;;;;6.40;2.70;;;13.90;99.90;;;;;;4960374;28;20260;-92
2023/05/04 08:36:13;;;;;;;3.13;2.20;;;13.50;99.90;;;;;;4958901;28;20291;-93
2023/05/04 08:38:38;;;;;;;4.90;2.33;;;13.70;99.90;;;;;;4964017;23;20241;-83
2023/05/04 08:41:05;;;;;;;2.10;1.60;;;13.80;99.90;;;;;;4963564;28;20241;-83
2023/05/04 08:43:37;;;;;;;3.17;1.93;;;13.80;99.90;;;;;;4963723;28;20864;-83
2023/05/04 08:46:03;;;;;;;3.37;2.47;;;13.60;99.90;;;;;;4947517;28;20223;-85
2023/05/04 08:48:32;;;;;;;3.13;1.40;;;13.50;99.90;;;;;;4948461;28;20227;-83
2023/05/04 08:50:58;;;;;;;3.03;1.93;;;13.50;99.90;;;;;;4962601;28;20329;-85
2023/05/04 08:53:25;;;;;;;4.53;2.57;;;13.80;99.90;;;;;;4946394;28;21157;-84
2023/05/04 08:55:54;;;;;;;3.33;2.53;;;14.00;99.90;;;;;;4947812;29;20602;-84
2023/05/04 08:58:23;;;;;;;5.73;2.53;;;14.00;99.90;;;;;;4939037;28;20960;-84
2023/05/04 09:00:49;;;;;;;5.03;2.20;;;14.20;99.90;;;;;;4945604;29;20221;-83
2023/05/04 09:03:16;;;;;;;4.07;2.00;;;14.50;99.90;;;;;;4944567;28;20660;-83
2023/05/04 09:05:43;;;;;;;1.83;1.53;;;14.70;99.90;;;;;;4945935;29;20239;-85
2023/05/04 09:08:09;;;;;;;7.03;1.50;;;15.10;99.90;;;;;;4931328;29;20200;-86
2023/05/04 09:10:35;;;;;;;2.63;1.57;;;15.10;99.90;;;;;;4947848;28;20225;-84
2023/05/04 09:13:01;;;;;;;3.33;1.93;;;14.90;99.90;;;;;;4931809;29;20236;-84
2023/05/04 09:15:26;;;;;;;7.97;3.27;;;14.60;99.90;;;;;;4947371;29;20225;-85
2023/05/04 09:18:03;;;;;;;3.40;2.60;;;14.60;99.90;;;;;;4947523;28;20268;-84
2023/05/04 09:20:41;;;;;;;4.73;2.47;;;14.50;99.90;;;;;;4944914;28;20196;-84
2023/05/04 09:23:08;;;;;;;2.87;1.90;;;14.80;99.90;;;;;;4945936;29;20430;-84
2023/05/04 09:25:47;;;;;;;2.10;1.87;;;15.10;99.90;;;;;;4944064;29;20248;-84
2023/05/04 09:28:13;;;;;;;2.40;2.10;;;15.20;99.90;;;;;;4944541;29;20232;-83
2023/05/04 09:30:39;;;;;;;4.63;2.10;;;15.20;99.90;;;;;;4944891;28;20244;-85
2023/05/04 09:33:05;;;;;;;13.07;2.37;;;15.40;99.90;;;;;;4946449;28;20229;-84
2023/05/04 09:35:31;;;;;;;6.03;2.23;;;15.60;99.90;;;;;;4944919;28;20185;-83
2023/05/04 09:37:57;;;;;;;3.90;2.00;;;15.80;99.90;;;;;;4948178;29;20233;-84
2023/05/04 09:40:52;;;;;;;3.17;2.33;;;16.00;99.90;;;;;;4934104;29;20209;-88
2023/05/04 09:43:18;;;;;;;3.33;2.07;;;15.90;99.90;;;;;;4961358;28;20224;-85
2023/05/04 09:45:45;;;;;;;2.63;2.03;;;15.80;99.90;;;;;;4970278;28;20220;-86
2023/05/04 09:48:24;;;;;;;4.33;2.63;;;15.70;99.90;;;;;;4959067;28;20217;-86
2023/05/04 09:50:55;;;;;;;2.53;2.13;;;15.40;99.90;;;;;;4947518;28;20225;-85
2023/05/04 09:53:31;;;;;;;4.70;2.70;;;15.30;99.90;;;;;;4946523;28;20218;-84
2023/05/04 09:56:13;;;;;;;4.00;2.03;;;15.00;99.90;;;;;;4945051;29;20893;-86
2023/05/04 09:58:39;;;;;;;3.03;2.73;;;14.60;99.90;;;;;;4945480;28;20264;-86
2023/05/04 10:01:05;;;;;;;4.37;2.80;;;14.80;99.90;;;;;;4943248;28;20303;-86
2023/05/04 10:03:31;;;;;;;3.33;3.10;;;14.90;99.90;;;;;;4928563;29;20745;-85
2023/05/04 10:05:59;;;;;;;3.27;2.70;;;15.10;99.90;;;;;;4943669;28;20239;-83
2023/05/04 10:08:28;;;;;;;6.17;2.93;;;15.20;99.90;;;;;;4943243;28;20550;-82
2023/05/04 10:10:54;;;;;;;5.53;2.67;;;15.20;99.90;;;;;;4944820;29;20189;-83
2023/05/04 10:13:20;;;;;;;5.03;3.27;;;15.20;99.90;;;;;;4943140;29;20237;-85
2023/05/04 10:16:09;;;;;;;3.63;2.90;;;15.50;99.90;;;;;;4943348;29;20698;-83
2023/05/04 10:18:44;;;;;;;4.37;2.70;;;15.80;99.90;;;;;;4944397;28;20221;-85
2023/05/04 10:21:31;;;;;;;4.37;3.30;;;15.90;99.90;;;;;;4943134;28;20221;-83
2023/05/04 10:24:37;;;;;;;5.67;3.33;;;15.60;99.90;;;;;;4944026;28;20659;-83
2023/05/04 10:27:13;;;;;;;5.73;2.70;;;15.90;99.90;;;;;;4947110;28;20752;-87
2023/05/04 10:29:40;;;;;;;3.53;3.20;;;16.30;99.90;;;;;;4948174;28;20493;-84
2023/05/04 10:32:19;;;;;;;5.70;3.00;;;16.40;99.90;;;;;;4928147;29;20730;-84
2023/05/04 10:34:46;;;;;;;4.77;3.03;;;16.30;99.90;;;;;;4962907;28;20234;-84
2023/05/04 10:37:20;;;;;;;4.23;3.50;;;16.30;99.90;;;;;;4947857;28;20224;-85
2023/05/04 10:39:51;;;;;;;3.03;2.07;;;16.40;99.90;;;;;;4962520;28;20346;-86
2023/05/04 10:42:17;;;;;;;5.37;3.03;;;16.40;99.90;;;;;;4954933;28;20232;-84
2023/05/04 10:44:52;;;;;;;4.07;2.47;;;16.30;99.90;;;;;;4943178;29;20225;-83
2023/05/04 10:47:33;;;;;;;4.83;2.77;;;16.00;99.90;;;;;;4942920;28;20192;-84
2023/05/04 10:50:10;;;;;;;5.33;2.83;;;16.00;99.90;;;;;;4959135;28;20721;-84
2023/05/04 10:52:47;;;;;;;5.37;2.60;;;16.30;99.90;;;;;;4942164;29;20257;-84
2023/05/04 10:55:13;;;;;;;5.13;3.07;;;16.30;99.90;;;;;;4943506;28;20292;-83
2023/05/04 10:57:51;;;;;;;3.63;2.77;;;16.50;99.90;;;;;;4944672;28;20288;-83
2023/05/04 11:00:18;;;;;;;3.87;2.70;;;16.80;99.90;;;;;;4962053;28;20227;-84
2023/05/04 11:02:46;;;;;;;3.67;3.37;;;16.70;99.90;;;;;;4947213;29;20304;-84
2023/05/04 11:05:17;;;;;;;3.43;2.77;;;16.60;99.90;;;;;;4946298;29;20495;-83
2023/05/04 11:07:43;;;;;;;7.57;3.23;;;16.60;99.90;;;;;;4965218;28;20212;-83
2023/05/04 11:10:21;;;;;;;4.23;3.10;;;16.40;99.90;;;;;;4964168;28;20240;-84
2023/05/04 11:12:47;;;;;;;3.10;2.63;;;16.60;99.90;;;;;;4965510;28;20231;-85
2023/05/04 11:15:12;;;;;;;5.27;3.33;;;16.40;99.90;;;;;;4958011;28;20685;-84
2023/05/04 11:17:49;;;;;;;6.27;3.70;;;16.10;99.90;;;;;;4946730;28;20688;-82
2023/05/04 11:20:23;;;;;;;4.20;3.10;;;16.10;99.90;;;;;;4946359;29;20185;-82
2023/05/04 11:22:49;;;;;;;3.33;3.00;;;16.40;99.90;;;;;;4966134;28;20315;-81
2023/05/04 11:25:16;;;;;;;3.13;2.53;;;16.50;99.90;;;;;;4965048;28;20227;-83
2023/05/04 11:27:42;;;;;;;5.57;3.07;;;16.70;99.90;;;;;;4963092;28;20220;-82
2023/05/04 11:30:09;;;;;;;5.17;3.17;;;16.80;99.90;;;;;;4963774;28;20292;-84
2023/05/04 11:32:42;;;;;;;6.67;3.63;;;16.90;99.90;;;;;;4949591;28;20221;-83
2023/05/04 11:35:18;;;;;;;3.47;3.10;;;16.90;99.90;;;;;;4966154;28;20218;-83
2023/05/04 11:37:46;;;;;;;2.70;2.30;;;16.70;99.90;;;;;;4966317;28;20258;-86
2023/05/04 11:40:13;;;;;;;6.03;2.30;;;16.50;99.90;;;;;;4951056;28;20225;-83
2023/05/04 11:42:41;;;;;;;6.27;3.60;;;16.50;99.90;;;;;;4946252;28;20236;-85
2023/05/04 11:45:31;;;;;;;5.23;3.60;;;16.70;99.90;;;;;;4944985;29;20229;-84
2023/05/04 11:47:58;;;;;;;6.30;4.00;;;16.60;99.90;;;;;;4930128;29;20459;-83
2023/05/04 11:50:25;;;;;;;3.67;3.20;;;16.50;99.90;;;;;;4948223;28;20205;-82
2023/05/04 11:53:02;;;;;;;3.47;3.20;;;16.60;99.90;;;;;;4964656;28;20206;-84
2023/05/04 11:55:30;;;;;;;7.30;3.13;;;16.40;99.90;;;;;;4947146;29;20224;-84
2023/05/04 11:58:06;;;;;;;4.63;2.77;;;16.60;99.90;;;;;;4963253;28;20337;-82
2023/05/04 12:00:44;;;;;;;9.03;3.00;;;16.60;99.90;;;;;;4947336;28;20223;-81
2023/05/04 12:03:12;;;;;;;5.83;3.57;;;16.60;99.90;;;;;;4948465;28;20344;-84
2023/05/04 12:05:38;;;;;;;8.50;3.57;;;16.50;99.90;;;;;;4946593;28;20217;-82
2023/05/04 12:08:06;;;;;;;4.30;3.10;;;16.70;99.90;;;;;;4947833;29;20189;-81
2023/05/04 12:10:34;;;;;;;4.53;2.70;;;16.90;99.90;;;;;;4947317;28;20280;-82
2023/05/04 12:13:13;;;;;;;5.63;3.50;;;16.90;99.90;;;;;;4946566;29;20241;-82
2023/05/04 12:15:39;;;;;;;3.60;2.93;;;16.90;99.90;;;;;;4947616;29;20275;-83
2023/05/04 12:18:05;;;;;;;7.37;3.03;;;17.00;99.90;;;;;;4948033;28;20613;-83
2023/05/04 12:20:30;;;;;;;8.87;3.47;;;16.80;99.90;;;;;;4928871;28;20201;-83
2023/05/04 12:22:57;;;;;;;5.03;3.60;;;16.80;99.90;;;;;;4929411;29;20228;-82
2023/05/04 12:25:23;;;;;;;6.07;3.67;;;16.80;99.90;;;;;;4928392;29;20224;-82
2023/05/04 12:27:49;;;;;;;3.33;2.93;;;16.90;99.90;;;;;;4943374;29;20260;-82
2023/05/04 12:30:15;;;;;;;4.50;3.20;;;16.90;99.90;;;;;;4943892;29;20312;-81
2023/05/04 12:32:43;;;;;;;7.63;3.67;;;16.90;99.90;;;;;;4943895;28;21042;-81
2023/05/04 12:35:09;;;;;;;3.83;3.27;;;16.90;99.90;;;;;;4945695;29;20201;-84
2023/05/04 12:37:36;;;;;;;5.60;2.70;;;17.30;99.90;;;;;;4943268;29;20225;-82
2023/05/04 12:40:03;;;;;;;3.83;3.50;;;17.30;99.90;;;;;;4942963;28;20319;-81
2023/05/04 12:42:29;;;;;;;4.83;2.73;;;17.30;99.90;;;;;;4946555;28;20216;-82
2023/05/04 12:44:55;;;;;;;6.53;3.83;;;17.20;99.90;;;;;;4963201;28;20224;-82
2023/05/04 12:47:23;;;;;;;3.93;3.30;;;17.30;99.90;;;;;;4962829;28;20193;-82
2023/05/04 12:49:49;;;;;;;8.90;4.07;;;17.20;99.90;;;;;;4947956;28;20189;-82
2023/05/04 12:52:15;;;;;;;3.03;2.43;;;17.20;99.90;;;;;;4962222;28;20361;-83
2023/05/04 12:54:41;;;;;;;5.70;2.93;;;17.20;99.90;;;;;;4964663;28;20846;-83